sensor_id;sensor_type;location;lat;lon;timestamp;pressure;altitude;pressure_sealevel;temperature;humidity
75420;BME280;63998;52.488;13.428;2023-04-03T00:01:15;102516.66;;;2.99;61.71
75420;BME280;63998;52.488;13.428;2023-04-03T00:03:41;102515.41;;;2.92;61.72
75420;BME280;63998;52.488;13.428;2023-04-03T00:06:07;102512.69;;;2.76;60.79
75420;BME280;63998;52.488;13.428;2023-04-03T00:08:42;102521.38;;;2.78;61.92
75420;BME280;63998;52.488;13.428;2023-04-03T00:11:08;102514.66;;;2.80;61.75
75420;BME280;63998;52.488;13.428;2023-04-03T00:13:34;102509.72;;;2.83;62.29
75420;BME280;63998;52.488;13.428;2023-04-03T00:15:59;102508.75;;;2.81;61.22
75420;BME280;63998;52.488;13.428;2023-04-03T00:18:25;102521.75;;;2.84;61.75
75420;BME280;63998;52.488;13.428;2023-04-03T00:20:50;102514.06;;;2.84;62.88
75420;BME280;63998;52.488;13.428;2023-04-03T00:23:16;102511.88;;;2.90;61.20
75420;BME280;63998;52.488;13.428;2023-04-03T00:25:44;102511.88;;;2.90;61.97
75420;BME280;63998;52.488;13.428;2023-04-03T00:28:09;102515.22;;;2.89;60.86
75420;BME280;63998;52.488;13.428;2023-04-03T00:30:35;102524.69;;;2.90;61.39
75420;BME280;63998;52.488;13.428;2023-04-03T00:33:03;102514.97;;;2.99;62.69
75420;BME280;63998;52.488;13.428;2023-04-03T00:35:28;102517.88;;;2.91;61.18
75420;BME280;63998;52.488;13.428;2023-04-03T00:37:56;102525.47;;;2.89;60.84
75420;BME280;63998;52.488;13.428;2023-04-03T00:40:24;102517.00;;;2.90;60.77
75420;BME280;63998;52.488;13.428;2023-04-03T00:42:58;102523.91;;;2.91;61.16
75420;BME280;63998;52.488;13.428;2023-04-03T00:45:40;102512.06;;;2.93;61.41
75420;BME280;63998;52.488;13.428;2023-04-03T00:48:08;102517.44;;;2.98;61.09
75420;BME280;63998;52.488;13.428;2023-04-03T00:50:41;102514.88;;;2.98;60.26
75420;BME280;63998;52.488;13.428;2023-04-03T00:53:11;102513.31;;;3.00;60.80
75420;BME280;63998;52.488;13.428;2023-04-03T00:55:38;102520.75;;;2.95;60.59
75420;BME280;63998;52.488;13.428;2023-04-03T00:58:04;102518.63;;;3.03;61.78
75420;BME280;63998;52.488;13.428;2023-04-03T01:00:36;102518.06;;;2.94;60.39
75420;BME280;63998;52.488;13.428;2023-04-03T01:03:03;102514.63;;;2.93;59.65
75420;BME280;63998;52.488;13.428;2023-04-03T01:05:31;102517.66;;;3.01;61.85
75420;BME280;63998;52.488;13.428;2023-04-03T01:08:00;102517.38;;;2.96;60.24
75420;BME280;63998;52.488;13.428;2023-04-03T01:10:25;102521.13;;;2.88;60.16
75420;BME280;63998;52.488;13.428;2023-04-03T01:12:51;102525.47;;;2.89;60.90
75420;BME280;63998;52.488;13.428;2023-04-03T01:15:24;102526.91;;;2.84;59.97
75420;BME280;63998;52.488;13.428;2023-04-03T01:17:57;102522.25;;;2.78;59.95
75420;BME280;63998;52.488;13.428;2023-04-03T01:23:11;102526.81;;;2.69;60.04
75420;BME280;63998;52.488;13.428;2023-04-03T01:25:49;102524.16;;;2.68;60.29
75420;BME280;63998;52.488;13.428;2023-04-03T01:28:20;102525.75;;;2.66;60.40
75420;BME280;63998;52.488;13.428;2023-04-03T01:33:26;102529.84;;;2.77;62.11
75420;BME280;63998;52.488;13.428;2023-04-03T01:35:51;102524.72;;;2.77;61.46
75420;BME280;63998;52.488;13.428;2023-04-03T01:38:19;102523.94;;;2.78;61.50
75420;BME280;63998;52.488;13.428;2023-04-03T01:40:46;102535.00;;;2.77;62.16
75420;BME280;63998;52.488;13.428;2023-04-03T01:43:11;102529.50;;;2.71;61.49
75420;BME280;63998;52.488;13.428;2023-04-03T01:45:37;102533.44;;;2.66;61.02
75420;BME280;63998;52.488;13.428;2023-04-03T01:48:02;102536.41;;;2.72;61.50
75420;BME280;63998;52.488;13.428;2023-04-03T01:50:31;102540.34;;;2.67;61.12
75420;BME280;63998;52.488;13.428;2023-04-03T01:52:58;102552.78;;;2.61;60.55
75420;BME280;63998;52.488;13.428;2023-04-03T01:55:24;102535.81;;;2.63;61.24
75420;BME280;63998;52.488;13.428;2023-04-03T01:57:49;102549.03;;;2.56;60.46
75420;BME280;63998;52.488;13.428;2023-04-03T02:00:15;102541.16;;;2.52;60.83
75420;BME280;63998;52.488;13.428;2023-04-03T02:02:42;102551.41;;;2.52;61.12
75420;BME280;63998;52.488;13.428;2023-04-03T02:05:08;102550.03;;;2.44;60.88
75420;BME280;63998;52.488;13.428;2023-04-03T02:07:33;102554.97;;;2.41;61.01
75420;BME280;63998;52.488;13.428;2023-04-03T02:09:59;102555.97;;;2.43;61.34
75420;BME280;63998;52.488;13.428;2023-04-03T02:12:25;102555.28;;;2.33;61.32
75420;BME280;63998;52.488;13.428;2023-04-03T02:14:50;102557.75;;;2.31;61.87
75420;BME280;63998;52.488;13.428;2023-04-03T02:17:18;102549.75;;;2.27;62.02
75420;BME280;63998;52.488;13.428;2023-04-03T02:19:43;102551.53;;;2.28;62.02
75420;BME280;63998;52.488;13.428;2023-04-03T02:22:09;102550.25;;;2.21;61.65
75420;BME280;63998;52.488;13.428;2023-04-03T02:24:36;102552.19;;;2.25;62.42
75420;BME280;63998;52.488;13.428;2023-04-03T02:27:04;102558.22;;;2.26;62.38
75420;BME280;63998;52.488;13.428;2023-04-03T02:29:29;102556.66;;;2.28;62.55
75420;BME280;63998;52.488;13.428;2023-04-03T02:31:55;102565.03;;;2.38;63.88
75420;BME280;63998;52.488;13.428;2023-04-03T02:34:23;102562.34;;;2.37;63.49
75420;BME280;63998;52.488;13.428;2023-04-03T02:36:48;102561.19;;;2.32;62.96
75420;BME280;63998;52.488;13.428;2023-04-03T02:39:14;102567.22;;;2.32;63.59
75420;BME280;63998;52.488;13.428;2023-04-03T02:41:41;102581.59;;;2.30;62.80
75420;BME280;63998;52.488;13.428;2023-04-03T02:44:11;102584.25;;;2.19;62.34
75420;BME280;63998;52.488;13.428;2023-04-03T02:46:37;102581.78;;;2.20;62.84
75420;BME280;63998;52.488;13.428;2023-04-03T02:49:02;102592.41;;;2.13;62.70
75420;BME280;63998;52.488;13.428;2023-04-03T02:51:30;102598.94;;;2.08;62.53
75420;BME280;63998;52.488;13.428;2023-04-03T02:53:58;102595.75;;;2.12;63.42
75420;BME280;63998;52.488;13.428;2023-04-03T02:56:23;102596.19;;;2.18;63.53
75420;BME280;63998;52.488;13.428;2023-04-03T02:58:49;102590.63;;;2.12;62.95
75420;BME280;63998;52.488;13.428;2023-04-03T03:01:14;102583.72;;;2.11;63.24
75420;BME280;63998;52.488;13.428;2023-04-03T03:03:40;102595.75;;;2.12;63.43
75420;BME280;63998;52.488;13.428;2023-04-03T03:06:10;102595.59;;;2.09;63.09
75420;BME280;63998;52.488;13.428;2023-04-03T03:08:38;102595.59;;;2.09;63.41
75420;BME280;63998;52.488;13.428;2023-04-03T03:11:10;102601.84;;;2.01;63.19
75420;BME280;63998;52.488;13.428;2023-04-03T03:13:38;102603.81;;;1.92;62.81
75420;BME280;63998;52.488;13.428;2023-04-03T03:16:05;102594.78;;;1.97;64.06
75420;BME280;63998;52.488;13.428;2023-04-03T03:18:35;102601.75;;;1.99;63.57
75420;BME280;63998;52.488;13.428;2023-04-03T03:21:02;102601.84;;;2.01;63.96
75420;BME280;63998;52.488;13.428;2023-04-03T03:23:29;102595.13;;;1.90;63.68
75420;BME280;63998;52.488;13.428;2023-04-03T03:26:06;102602.81;;;1.90;63.68
75420;BME280;63998;52.488;13.428;2023-04-03T03:28:32;102610.94;;;1.96;64.32
75420;BME280;63998;52.488;13.428;2023-04-03T03:31:01;102611.50;;;1.92;63.22
75420;BME280;63998;52.488;13.428;2023-04-03T03:33:29;102613.06;;;1.90;63.72
75420;BME280;63998;52.488;13.428;2023-04-03T03:35:54;102612.19;;;1.89;63.62
75420;BME280;63998;52.488;13.428;2023-04-03T03:38:20;102615.13;;;1.82;63.59
75420;BME280;63998;52.488;13.428;2023-04-03T03:40:47;102615.34;;;1.85;63.77
75420;BME280;63998;52.488;13.428;2023-04-03T03:43:14;102611.06;;;1.72;63.97
75420;BME280;63998;52.488;13.428;2023-04-03T03:45:42;102612.03;;;1.74;63.52
75420;BME280;63998;52.488;13.428;2023-04-03T03:48:12;102613.63;;;1.72;64.26
75420;BME280;63998;52.488;13.428;2023-04-03T03:50:40;102608.50;;;1.72;63.81
75420;BME280;63998;52.488;13.428;2023-04-03T03:53:08;102608.91;;;1.78;64.30
75420;BME280;63998;52.488;13.428;2023-04-03T03:55:34;102612.53;;;1.69;63.93
75420;BME280;63998;52.488;13.428;2023-04-03T03:58:01;102611.44;;;1.65;64.01
75420;BME280;63998;52.488;13.428;2023-04-03T04:00:29;102621.06;;;1.56;64.16
75420;BME280;63998;52.488;13.428;2023-04-03T04:02:55;102602.56;;;1.60;64.47
75420;BME280;63998;52.488;13.428;2023-04-03T04:05:23;102608.47;;;1.59;64.32
75420;BME280;63998;52.488;13.428;2023-04-03T04:07:51;102607.69;;;1.60;65.05
75420;BME280;63998;52.488;13.428;2023-04-03T04:10:21;102614.38;;;1.58;64.68
75420;BME280;63998;52.488;13.428;2023-04-03T04:12:46;102596.13;;;1.54;64.57
75420;BME280;63998;52.488;13.428;2023-04-03T04:15:18;102604.31;;;1.61;65.55
75420;BME280;63998;52.488;13.428;2023-04-03T04:17:43;102609.25;;;1.58;65.04
75420;BME280;63998;52.488;13.428;2023-04-03T04:20:11;102611.38;;;1.52;64.75
75420;BME280;63998;52.488;13.428;2023-04-03T04:22:39;102610.13;;;1.59;65.53
75420;BME280;63998;52.488;13.428;2023-04-03T04:25:05;102611.75;;;1.45;64.58
75420;BME280;63998;52.488;13.428;2023-04-03T04:27:31;102618.84;;;1.49;65.83
75420;BME280;63998;52.488;13.428;2023-04-03T04:29:56;102613.72;;;1.49;65.13
75420;BME280;63998;52.488;13.428;2023-04-03T04:32:22;102621.31;;;1.48;65.52
75420;BME280;63998;52.488;13.428;2023-04-03T04:34:47;102619.94;;;1.53;65.63
75420;BME280;63998;52.488;13.428;2023-04-03T04:37:17;102617.72;;;1.57;65.97
75420;BME280;63998;52.488;13.428;2023-04-03T04:39:42;102624.38;;;1.55;65.27
75420;BME280;63998;52.488;13.428;2023-04-03T04:42:08;102628.50;;;1.53;65.77
75420;BME280;63998;52.488;13.428;2023-04-03T04:44:40;102623.28;;;1.52;65.88
75420;BME280;63998;52.488;13.428;2023-04-03T04:47:05;102625.38;;;1.57;65.94
75420;BME280;63998;52.488;13.428;2023-04-03T04:49:31;102636.41;;;1.56;65.41
75420;BME280;63998;52.488;13.428;2023-04-03T04:51:56;102624.38;;;1.55;65.43
75420;BME280;63998;52.488;13.428;2023-04-03T04:54:24;102635.25;;;1.64;66.17
75420;BME280;63998;52.488;13.428;2023-04-03T04:56:50;102636.38;;;1.68;65.83
75420;BME280;63998;52.488;13.428;2023-04-03T04:59:15;102637.03;;;1.65;66.29
75420;BME280;63998;52.488;13.428;2023-04-03T05:01:43;102638.03;;;1.67;66.09
75420;BME280;63998;52.488;13.428;2023-04-03T05:04:08;102639.44;;;1.75;66.36
75420;BME280;63998;52.488;13.428;2023-04-03T05:06:34;102645.97;;;1.84;66.88
75420;BME280;63998;52.488;13.428;2023-04-03T05:09:00;102634.75;;;1.82;66.25
75420;BME280;63998;52.488;13.428;2023-04-03T05:11:28;102638.66;;;1.76;66.03
75420;BME280;63998;52.488;13.428;2023-04-03T05:13:53;102645.00;;;1.82;65.87
75420;BME280;63998;52.488;13.428;2023-04-03T05:16:18;102644.31;;;1.84;66.09
75420;BME280;63998;52.488;13.428;2023-04-03T05:18:46;102640.97;;;1.85;65.60
75420;BME280;63998;52.488;13.428;2023-04-03T05:21:11;102649.72;;;1.89;66.39
75420;BME280;63998;52.488;13.428;2023-04-03T05:23:37;102649.38;;;1.96;65.74
75420;BME280;63998;52.488;13.428;2023-04-03T05:26:05;102646.22;;;2.00;65.73
75420;BME280;63998;52.488;13.428;2023-04-03T05:28:31;102649.97;;;2.05;66.17
75420;BME280;63998;52.488;13.428;2023-04-03T05:30:59;102660.44;;;2.08;66.34
75420;BME280;63998;52.488;13.428;2023-04-03T05:33:27;102652.47;;;2.16;65.90
75420;BME280;63998;52.488;13.428;2023-04-03T05:35:53;102659.94;;;2.13;65.00
75420;BME280;63998;52.488;13.428;2023-04-03T05:38:18;102661.84;;;2.16;64.93
75420;BME280;63998;52.488;13.428;2023-04-03T05:40:45;102661.25;;;2.20;64.92
75420;BME280;63998;52.488;13.428;2023-04-03T05:43:15;102666.56;;;2.23;64.53
75420;BME280;63998;52.488;13.428;2023-04-03T05:45:43;102666.78;;;2.26;65.43
75420;BME280;63998;52.488;13.428;2023-04-03T05:48:08;102676.28;;;2.40;65.57
75420;BME280;63998;52.488;13.428;2023-04-03T05:50:33;102676.28;;;2.40;64.29
75420;BME280;63998;52.488;13.428;2023-04-03T05:52:59;102681.22;;;2.50;65.01
75420;BME280;63998;52.488;13.428;2023-04-03T05:55:26;102681.44;;;2.67;66.61
75420;BME280;63998;52.488;13.428;2023-04-03T05:57:52;102674.84;;;2.83;66.21
75420;BME280;63998;52.488;13.428;2023-04-03T06:00:17;102679.25;;;2.86;64.38
75420;BME280;63998;52.488;13.428;2023-04-03T06:02:43;102683.59;;;2.87;64.01
75420;BME280;63998;52.488;13.428;2023-04-03T06:05:11;102682.81;;;2.88;63.44
75420;BME280;63998;52.488;13.428;2023-04-03T06:07:40;102683.00;;;2.91;63.65
75420;BME280;63998;52.488;13.428;2023-04-03T06:10:06;102689.34;;;2.83;62.30
75420;BME280;63998;52.488;13.428;2023-04-03T06:12:32;102688.16;;;2.91;62.85
75420;BME280;63998;52.488;13.428;2023-04-03T06:14:57;102689.41;;;2.98;62.86
75420;BME280;63998;52.488;13.428;2023-04-03T06:17:25;102685.38;;;3.01;62.75
75420;BME280;63998;52.488;13.428;2023-04-03T06:19:50;102693.66;;;2.97;61.55
75420;BME280;63998;52.488;13.428;2023-04-03T06:22:18;102682.81;;;3.01;61.48
75420;BME280;63998;52.488;13.428;2023-04-03T06:24:48;102691.69;;;3.19;62.32
75420;BME280;63998;52.488;13.428;2023-04-03T06:27:13;102689.22;;;3.21;61.83
75420;BME280;63998;52.488;13.428;2023-04-03T06:29:39;102690.66;;;3.31;61.49
75420;BME280;63998;52.488;13.428;2023-04-03T06:32:06;102685.13;;;3.38;61.05
75420;BME280;63998;52.488;13.428;2023-04-03T06:34:32;102689.66;;;3.42;60.53
75420;BME280;63998;52.488;13.428;2023-04-03T06:36:57;102693.00;;;3.41;59.67
75420;BME280;63998;52.488;13.428;2023-04-03T06:39:22;102695.94;;;3.47;60.10
75420;BME280;63998;52.488;13.428;2023-04-03T06:41:49;102697.34;;;3.55;60.40
75420;BME280;63998;52.488;13.428;2023-04-03T06:44:15;102697.00;;;3.64;60.53
75420;BME280;63998;52.488;13.428;2023-04-03T06:46:42;102703.41;;;3.70;58.63
75420;BME280;63998;52.488;13.428;2023-04-03T06:49:08;102702.78;;;3.74;58.49
75420;BME280;63998;52.488;13.428;2023-04-03T06:51:35;102701.53;;;3.95;60.20
75420;BME280;63998;52.488;13.428;2023-04-03T06:54:02;102701.91;;;4.02;58.95
75420;BME280;63998;52.488;13.428;2023-04-03T06:56:28;102709.34;;;4.12;58.14
75420;BME280;63998;52.488;13.428;2023-04-03T06:58:55;102712.91;;;4.14;56.47
75420;BME280;63998;52.488;13.428;2023-04-03T07:01:24;102718.59;;;4.23;58.41
75420;BME280;63998;52.488;13.428;2023-04-03T07:03:51;102713.28;;;4.34;59.08
75420;BME280;63998;52.488;13.428;2023-04-03T07:06:17;102718.09;;;4.43;57.02
75420;BME280;63998;52.488;13.428;2023-04-03T07:08:46;102717.22;;;4.43;55.00
75420;BME280;63998;52.488;13.428;2023-04-03T07:11:13;102720.09;;;4.34;54.99
75420;BME280;63998;52.488;13.428;2023-04-03T07:13:39;102719.59;;;4.40;54.20
75420;BME280;63998;52.488;13.428;2023-04-03T07:16:05;102722.53;;;4.31;53.86
75420;BME280;63998;52.488;13.428;2023-04-03T07:18:32;102731.28;;;4.34;53.24
75420;BME280;63998;52.488;13.428;2023-04-03T07:20:58;102733.19;;;4.52;55.84
75420;BME280;63998;52.488;13.428;2023-04-03T07:23:26;102724.75;;;4.54;53.79
75420;BME280;63998;52.488;13.428;2023-04-03T07:25:52;102734.06;;;4.52;51.31
75420;BME280;63998;52.488;13.428;2023-04-03T07:28:22;102726.06;;;4.48;52.40
75420;BME280;63998;52.488;13.428;2023-04-03T07:31:03;102736.19;;;4.59;53.67
75420;BME280;63998;52.488;13.428;2023-04-03T07:33:28;102733.88;;;4.49;50.42
75420;BME280;63998;52.488;13.428;2023-04-03T07:35:54;102733.50;;;4.58;51.29
75420;BME280;63998;52.488;13.428;2023-04-03T07:38:22;102738.34;;;4.66;49.80
75420;BME280;63998;52.488;13.428;2023-04-03T07:40:48;102733.88;;;4.79;51.77
75420;BME280;63998;52.488;13.428;2023-04-03T07:43:18;102734.03;;;4.96;52.26
75420;BME280;63998;52.488;13.428;2023-04-03T07:45:44;102736.00;;;4.86;48.85
75420;BME280;63998;52.488;13.428;2023-04-03T07:48:11;102724.88;;;5.01;49.49
75420;BME280;63998;52.488;13.428;2023-04-03T07:50:37;102741.13;;;5.15;50.09
75420;BME280;63998;52.488;13.428;2023-04-03T07:53:03;102730.63;;;5.12;47.76
75420;BME280;63998;52.488;13.428;2023-04-03T07:55:28;102730.41;;;5.38;51.63
75420;BME280;63998;52.488;13.428;2023-04-03T07:57:56;102741.50;;;5.37;48.91
75420;BME280;63998;52.488;13.428;2023-04-03T08:00:25;102732.88;;;5.37;48.25
75420;BME280;63998;52.488;13.428;2023-04-03T08:02:50;102731.25;;;5.54;49.55
75420;BME280;63998;52.488;13.428;2023-04-03T08:05:20;102739.28;;;5.60;47.87
75420;BME280;63998;52.488;13.428;2023-04-03T08:07:46;102740.09;;;5.59;47.05
75420;BME280;63998;52.488;13.428;2023-04-03T08:10:12;102750.97;;;5.53;46.78
75420;BME280;63998;52.488;13.428;2023-04-03T08:12:37;102741.53;;;5.54;48.23
75420;BME280;63998;52.488;13.428;2023-04-03T08:15:03;102744.97;;;5.38;46.42
75420;BME280;63998;52.488;13.428;2023-04-03T08:17:29;102750.63;;;5.47;48.13
75420;BME280;63998;52.488;13.428;2023-04-03T08:19:54;102743.47;;;5.58;49.17
75420;BME280;63998;52.488;13.428;2023-04-03T08:22:22;102747.84;;;5.75;48.19
75420;BME280;63998;52.488;13.428;2023-04-03T08:24:47;102751.97;;;5.88;48.64
75420;BME280;63998;52.488;13.428;2023-04-03T08:27:15;102731.66;;;5.77;46.25
75420;BME280;63998;52.488;13.428;2023-04-03T08:29:40;102734.34;;;5.79;46.92
75420;BME280;63998;52.488;13.428;2023-04-03T08:32:08;102728.84;;;5.73;46.43
75420;BME280;63998;52.488;13.428;2023-04-03T08:34:33;102740.75;;;5.71;45.85
75420;BME280;63998;52.488;13.428;2023-04-03T08:37:00;102739.31;;;5.76;46.73
75420;BME280;63998;52.488;13.428;2023-04-03T08:39:26;102732.22;;;5.72;45.21
75420;BME280;63998;52.488;13.428;2023-04-03T08:41:55;102731.19;;;5.68;45.92
75420;BME280;63998;52.488;13.428;2023-04-03T08:44:38;102731.41;;;5.73;46.97
75420;BME280;63998;52.488;13.428;2023-04-03T08:49:51;102729.94;;;5.62;46.78
75420;BME280;63998;52.488;13.428;2023-04-03T08:55:49;102734.13;;;5.60;45.92
75420;BME280;63998;52.488;13.428;2023-04-03T08:58:18;102735.59;;;5.71;46.06
75420;BME280;63998;52.488;13.428;2023-04-03T09:00:50;102735.16;;;5.94;48.02
75420;BME280;63998;52.488;13.428;2023-04-03T09:03:18;102729.69;;;6.04;47.29
75420;BME280;63998;52.488;13.428;2023-04-03T09:05:57;102725.34;;;6.03;47.10
75420;BME280;63998;52.488;13.428;2023-04-03T09:08:42;102732.03;;;6.16;47.99
75420;BME280;63998;52.488;13.428;2023-04-03T09:14:34;102727.59;;;6.13;45.84
75420;BME280;63998;52.488;13.428;2023-04-03T09:19:54;102733.53;;;5.96;43.12
75420;BME280;63998;52.488;13.428;2023-04-03T09:22:27;102732.75;;;5.97;41.59
75420;BME280;63998;52.488;13.428;2023-04-03T09:27:34;102727.06;;;6.37;42.73
75420;BME280;63998;52.488;13.428;2023-04-03T09:29:59;102726.44;;;6.59;43.96
75420;BME280;63998;52.488;13.428;2023-04-03T09:32:29;102725.34;;;6.71;42.07
75420;BME280;63998;52.488;13.428;2023-04-03T09:35:17;102721.53;;;6.63;40.46
75420;BME280;63998;52.488;13.428;2023-04-03T09:37:48;102727.78;;;6.68;42.86
75420;BME280;63998;52.488;13.428;2023-04-03T09:42:56;102718.75;;;6.76;40.97
75420;BME280;63998;52.488;13.428;2023-04-03T09:45:26;102723.22;;;6.80;40.07
75420;BME280;63998;52.488;13.428;2023-04-03T09:50:35;102715.56;;;7.00;40.90
75420;BME280;63998;52.488;13.428;2023-04-03T09:53:11;102727.00;;;7.05;42.26
75420;BME280;63998;52.488;13.428;2023-04-03T09:55:50;102720.50;;;7.13;41.49
75420;BME280;63998;52.488;13.428;2023-04-03T09:58:29;102723.88;;;7.30;41.16
75420;BME280;63998;52.488;13.428;2023-04-03T10:00:57;102720.16;;;7.42;42.81
75420;BME280;63998;52.488;13.428;2023-04-03T10:03:34;102714.56;;;7.33;39.67
75420;BME280;63998;52.488;13.428;2023-04-03T10:06:01;102713.38;;;7.44;41.80
75420;BME280;63998;52.488;13.428;2023-04-03T10:08:32;102712.13;;;7.36;40.91
75420;BME280;63998;52.488;13.428;2023-04-03T10:11:13;102712.53;;;7.26;40.82
75420;BME280;63998;52.488;13.428;2023-04-03T10:14:01;102706.00;;;7.34;40.22
75420;BME280;63998;52.488;13.428;2023-04-03T10:16:41;102705.00;;;7.13;41.56
75420;BME280;63998;52.488;13.428;2023-04-03T10:21:56;102702.34;;;7.29;42.90
75420;BME280;63998;52.488;13.428;2023-04-03T10:25:20;102702.69;;;7.37;40.33
75420;BME280;63998;52.488;13.428;2023-04-03T10:27:35;102693.31;;;7.39;39.25
75420;BME280;63998;52.488;13.428;2023-04-03T10:35:59;102688.47;;;7.27;39.57
75420;BME280;63998;52.488;13.428;2023-04-03T10:47:09;102675.03;;;7.73;39.95
75420;BME280;63998;52.488;13.428;2023-04-03T10:50:00;102681.97;;;7.74;38.72
75420;BME280;63998;52.488;13.428;2023-04-03T10:55:24;102678.28;;;7.69;39.43
75420;BME280;63998;52.488;13.428;2023-04-03T10:57:43;102682.78;;;7.53;39.85
75420;BME280;63998;52.488;13.428;2023-04-03T11:00:21;102662.50;;;7.63;39.10
75420;BME280;63998;52.488;13.428;2023-04-03T11:02:59;102650.94;;;7.74;38.34
75420;BME280;63998;52.488;13.428;2023-04-03T11:05:42;102665.22;;;7.85;40.23
75420;BME280;63998;52.488;13.428;2023-04-03T11:10:51;102660.31;;;7.91;41.21
75420;BME280;63998;52.488;13.428;2023-04-03T11:13:22;102664.88;;;7.97;39.16
75420;BME280;63998;52.488;13.428;2023-04-03T11:15:52;102655.97;;;7.90;39.57
75420;BME280;63998;52.488;13.428;2023-04-03T11:18:25;102652.13;;;7.82;41.22
75420;BME280;63998;52.488;13.428;2023-04-03T11:21:02;102664.09;;;7.78;39.74
75420;BME280;63998;52.488;13.428;2023-04-03T11:23:33;102655.53;;;7.81;40.23
75420;BME280;63998;52.488;13.428;2023-04-03T11:26:12;102655.16;;;7.91;41.03
75420;BME280;63998;52.488;13.428;2023-04-03T11:28:40;102653.91;;;8.02;39.29
75420;BME280;63998;52.488;13.428;2023-04-03T11:36:52;102646.63;;;8.34;39.37
75420;BME280;63998;52.488;13.428;2023-04-03T11:44:39;102648.28;;;8.32;41.05
75420;BME280;63998;52.488;13.428;2023-04-03T11:47:09;102655.22;;;8.33;40.68
75420;BME280;63998;52.488;13.428;2023-04-03T11:49:55;102644.06;;;8.34;39.30
75420;BME280;63998;52.488;13.428;2023-04-03T11:53:02;102647.88;;;8.22;39.37
75420;BME280;63998;52.488;13.428;2023-04-03T12:03:33;102648.78;;;8.44;42.78
75420;BME280;63998;52.488;13.428;2023-04-03T12:19:36;102646.00;;;8.60;39.97
75420;BME280;63998;52.488;13.428;2023-04-03T12:24:32;102634.19;;;8.46;38.66
75420;BME280;63998;52.488;13.428;2023-04-03T12:35:30;102624.72;;;8.06;39.72
75420;BME280;63998;52.488;13.428;2023-04-03T12:46:45;102613.81;;;8.33;37.22
75420;BME280;63998;52.488;13.428;2023-04-03T12:51:51;102610.13;;;8.27;36.44
75420;BME280;63998;52.488;13.428;2023-04-03T12:54:34;102611.50;;;8.19;38.08
75420;BME280;63998;52.488;13.428;2023-04-03T12:57:17;102602.78;;;8.17;37.28
75420;BME280;63998;52.488;13.428;2023-04-03T12:59:43;102603.78;;;8.00;37.68
75420;BME280;63998;52.488;13.428;2023-04-03T13:04:50;102604.91;;;7.86;37.56
75420;BME280;63998;52.488;13.428;2023-04-03T13:07:48;102611.34;;;7.96;38.92
75420;BME280;63998;52.488;13.428;2023-04-03T13:10:16;102598.47;;;7.97;37.54
75420;BME280;63998;52.488;13.428;2023-04-03T13:12:52;102609.72;;;7.98;37.67
75420;BME280;63998;52.488;13.428;2023-04-03T13:15:30;102605.66;;;8.04;38.67
75420;BME280;63998;52.488;13.428;2023-04-03T13:18:04;102609.22;;;8.06;38.21
75420;BME280;63998;52.488;13.428;2023-04-03T13:20:34;102609.09;;;8.03;38.81
75420;BME280;63998;52.488;13.428;2023-04-03T13:23:08;102612.88;;;8.11;40.22
75420;BME280;63998;52.488;13.428;2023-04-03T13:25:41;102614.00;;;7.97;38.34
75420;BME280;63998;52.488;13.428;2023-04-03T13:28:15;102603.50;;;7.94;38.35
75420;BME280;63998;52.488;13.428;2023-04-03T13:31:05;102605.66;;;8.04;39.42
75420;BME280;63998;52.488;13.428;2023-04-03T13:33:34;102594.94;;;7.95;39.97
75420;BME280;63998;52.488;13.428;2023-04-03T13:36:18;102596.47;;;7.90;39.09
75420;BME280;63998;52.488;13.428;2023-04-03T13:38:44;102601.88;;;7.96;41.18
75420;BME280;63998;52.488;13.428;2023-04-03T13:41:29;102598.56;;;7.79;40.52
75420;BME280;63998;52.488;13.428;2023-04-03T13:43:55;102590.63;;;7.75;40.71
75420;BME280;63998;52.488;13.428;2023-04-03T13:46:27;102599.28;;;7.75;40.35
75420;BME280;63998;52.488;13.428;2023-04-03T13:48:54;102592.13;;;7.70;40.44
75420;BME280;63998;52.488;13.428;2023-04-03T13:51:26;102582.75;;;7.52;39.36
75420;BME280;63998;52.488;13.428;2023-04-03T13:53:56;102596.22;;;7.45;39.70
75420;BME280;63998;52.488;13.428;2023-04-03T13:59:18;102588.00;;;7.54;41.40
75420;BME280;63998;52.488;13.428;2023-04-03T14:01:47;102593.88;;;7.71;42.10
75420;BME280;63998;52.488;13.428;2023-04-03T14:06:45;102581.84;;;7.71;41.40
75420;BME280;63998;52.488;13.428;2023-04-03T14:09:10;102582.59;;;7.69;40.67
75420;BME280;63998;52.488;13.428;2023-04-03T14:11:36;102583.59;;;7.72;40.35
75420;BME280;63998;52.488;13.428;2023-04-03T14:14:09;102588.56;;;7.68;40.23
75420;BME280;63998;52.488;13.428;2023-04-03T14:16:40;102585.44;;;7.75;40.19
75420;BME280;63998;52.488;13.428;2023-04-03T14:19:06;102577.47;;;7.89;41.09
75420;BME280;63998;52.488;13.428;2023-04-03T14:21:32;102581.56;;;8.05;41.96
75420;BME280;63998;52.488;13.428;2023-04-03T14:23:58;102583.09;;;8.00;39.25
75420;BME280;63998;52.488;13.428;2023-04-03T14:26:27;102579.16;;;7.89;39.44
75420;BME280;63998;52.488;13.428;2023-04-03T14:28:54;102585.59;;;7.99;39.28
75420;BME280;63998;52.488;13.428;2023-04-03T14:31:23;102576.28;;;8.02;39.53
75420;BME280;63998;52.488;13.428;2023-04-03T14:33:53;102574.81;;;9.17;38.54
75420;BME280;63998;52.488;13.428;2023-04-03T14:36:23;102570.31;;;10.10;36.60
75420;BME280;63998;52.488;13.428;2023-04-03T14:38:51;102576.25;;;10.31;35.76
75420;BME280;63998;52.488;13.428;2023-04-03T14:41:20;102576.03;;;9.75;35.53
75420;BME280;63998;52.488;13.428;2023-04-03T14:43:47;102566.97;;;9.38;36.38
75420;BME280;63998;52.488;13.428;2023-04-03T14:46:39;102578.00;;;9.10;37.33
75420;BME280;63998;52.488;13.428;2023-04-03T14:49:27;102579.97;;;8.93;39.23
75420;BME280;63998;52.488;13.428;2023-04-03T14:51:55;102577.84;;;8.61;39.14